Time;durP1;ratioP1;P1;durP2;ratioP2;P2;SDS_P1;SDS_P2;PMS_P1;PMS_P2;Temp;Humidity;BMP_temperature;BMP_pressure;BME280_temperature;BME280_humidity;BME280_pressure;Samples;Min_cycle;Max_cycle;Signal;HPM_P1;HPM_P2
2022/07/25 00:01:06;;;;;;;7.57;4.70;;;;;;;;;;5048830;28;20072;-57
2022/07/25 00:03:32;;;;;;;7.57;4.73;;;;;;;;;;5048598;28;20128;-58
2022/07/25 00:05:58;;;;;;;7.77;4.93;;;;;;;;;;5048824;28;20121;-58
2022/07/25 00:08:24;;;;;;;8.53;4.30;;;;;;;;;;5048832;28;20037;-58
2022/07/25 00:10:50;;;;;;;6.97;4.47;;;;;;;;;;5048664;28;20061;-58
2022/07/25 00:13:16;;;;;;;6.17;5.00;;;;;;;;;;5048369;28;20053;-58
2022/07/25 00:15:42;;;;;;;6.70;5.00;;;;;;;;;;5050954;28;20089;-58
2022/07/25 00:18:08;;;;;;;6.23;5.17;;;;;;;;;;5052717;28;20098;-58
2022/07/25 00:20:34;;;;;;;7.37;5.33;;;;;;;;;;5051768;28;20053;-58
2022/07/25 00:23:00;;;;;;;7.50;4.93;;;;;;;;;;5052533;28;20102;-58
2022/07/25 00:25:26;;;;;;;7.40;5.77;;;;;;;;;;5052272;28;20097;-58
2022/07/25 00:27:52;;;;;;;9.53;5.80;;;;;;;;;;5052134;28;20514;-58
2022/07/25 00:30:18;;;;;;;6.37;5.40;;;;;;;;;;5052313;28;20086;-58
2022/07/25 00:32:44;;;;;;;7.43;5.33;;;;;;;;;;5051793;28;20190;-58
2022/07/25 00:35:11;;;;;;;9.17;5.80;;;;;;;;;;5051990;28;20132;-58
2022/07/25 00:37:37;;;;;;;7.43;5.40;;;;;;;;;;5052014;28;20047;-58
2022/07/25 00:40:03;;;;;;;9.97;6.20;;;;;;;;;;5052209;28;20045;-58
2022/07/25 00:42:29;;;;;;;7.00;6.17;;;;;;;;;;5051827;28;20079;-58
2022/07/25 00:44:56;;;;;;;9.47;5.90;;;;;;;;;;5051530;28;20499;-58
2022/07/25 00:47:22;;;;;;;10.47;6.77;;;;;;;;;;5051576;28;20454;-58
2022/07/25 00:49:48;;;;;;;9.53;6.67;;;;;;;;;;5052093;28;20075;-58
2022/07/25 00:52:14;;;;;;;9.23;6.70;;;;;;;;;;5051520;28;20410;-58
2022/07/25 00:54:41;;;;;;;12.23;7.27;;;;;;;;;;5051569;28;20108;-58
2022/07/25 00:57:07;;;;;;;8.10;7.07;;;;;;;;;;5052022;28;20082;-58
2022/07/25 00:59:33;;;;;;;12.40;7.00;;;;;;;;;;5051191;28;20056;-58
2022/07/25 01:01:59;;;;;;;9.70;7.30;;;;;;;;;;5051840;28;20041;-59
2022/07/25 01:04:25;;;;;;;8.40;7.43;;;;;;;;;;5051646;28;20045;-58
2022/07/25 01:06:51;;;;;;;11.70;8.10;;;;;;;;;;5051608;28;20721;-58
2022/07/25 01:09:18;;;;;;;10.43;7.90;;;;;;;;;;5051556;28;20133;-58
2022/07/25 01:11:44;;;;;;;10.73;8.73;;;;;;;;;;5051582;28;20052;-58
2022/07/25 01:14:10;;;;;;;13.27;7.80;;;;;;;;;;5051535;28;20052;-58
2022/07/25 01:16:36;;;;;;;9.30;8.00;;;;;;;;;;5051195;28;20049;-58
2022/07/25 01:19:02;;;;;;;10.17;9.13;;;;;;;;;;5051338;28;20095;-58
2022/07/25 01:21:28;;;;;;;11.00;9.00;;;;;;;;;;5051126;28;20057;-58
2022/07/25 01:23:54;;;;;;;13.17;8.90;;;;;;;;;;5051295;28;20499;-57
2022/07/25 01:26:21;;;;;;;12.07;9.63;;;;;;;;;;5050303;28;20053;-58
2022/07/25 01:28:47;;;;;;;10.93;8.90;;;;;;;;;;5051330;28;20051;-58
2022/07/25 01:31:13;;;;;;;11.20;9.67;;;;;;;;;;5050944;28;20044;-58
2022/07/25 01:33:39;;;;;;;10.50;9.13;;;;;;;;;;5050575;28;20095;-58
2022/07/25 01:36:05;;;;;;;10.77;9.67;;;;;;;;;;5051006;28;20055;-58
2022/07/25 01:38:31;;;;;;;10.33;9.23;;;;;;;;;;5050320;28;20115;-58
2022/07/25 01:40:57;;;;;;;13.83;9.20;;;;;;;;;;5051066;28;20053;-58
2022/07/25 01:43:23;;;;;;;14.17;10.13;;;;;;;;;;5050459;28;20514;-58
2022/07/25 01:45:49;;;;;;;10.17;8.30;;;;;;;;;;5050659;28;20045;-58
2022/07/25 01:48:15;;;;;;;11.70;10.27;;;;;;;;;;5050389;28;20099;-58
2022/07/25 01:50:41;;;;;;;11.00;9.10;;;;;;;;;;5050716;28;20492;-58
2022/07/25 01:53:07;;;;;;;12.40;8.67;;;;;;;;;;5050486;28;20045;-58
2022/07/25 01:55:33;;;;;;;15.70;9.77;;;;;;;;;;5050344;28;20045;-58
2022/07/25 01:57:59;;;;;;;15.73;9.53;;;;;;;;;;5050490;28;20047;-58
2022/07/25 02:00:26;;;;;;;11.67;9.33;;;;;;;;;;5049998;28;20116;-58
2022/07/25 02:05:36;;;;;;;12.93;9.73;;;;;;;;;;5050807;28;20402;-58
2022/07/25 02:08:02;;;;;;;11.23;9.27;;;;;;;;;;5050475;28;20049;-58
2022/07/25 02:10:28;;;;;;;15.23;10.03;;;;;;;;;;5050025;28;20132;-58
2022/07/25 02:12:54;;;;;;;12.50;10.00;;;;;;;;;;5050489;28;20570;-58
2022/07/25 02:15:20;;;;;;;16.97;10.57;;;;;;;;;;5050198;28;20053;-58
2022/07/25 02:17:46;;;;;;;11.60;10.40;;;;;;;;;;5049959;28;20450;-58
2022/07/25 02:20:12;;;;;;;13.40;10.40;;;;;;;;;;5049653;28;20099;-58
2022/07/25 02:22:38;;;;;;;12.00;9.90;;;;;;;;;;5050083;28;20049;-58
2022/07/25 02:25:05;;;;;;;13.00;9.63;;;;;;;;;;5050469;28;20045;-58
2022/07/25 02:27:31;;;;;;;11.30;9.80;;;;;;;;;;5048705;28;20048;-58
2022/07/25 02:29:57;;;;;;;13.70;10.27;;;;;;;;;;5049822;28;20041;-58
2022/07/25 02:32:23;;;;;;;11.47;10.27;;;;;;;;;;5050019;28;20049;-58
2022/07/25 02:34:49;;;;;;;13.00;11.47;;;;;;;;;;5049695;28;20122;-58
2022/07/25 02:37:15;;;;;;;13.50;10.63;;;;;;;;;;5049583;28;20056;-58
2022/07/25 02:39:41;;;;;;;13.00;10.90;;;;;;;;;;5049725;28;20045;-58
2022/07/25 02:42:07;;;;;;;15.83;11.10;;;;;;;;;;5050011;28;20049;-58
2022/07/25 02:44:33;;;;;;;13.00;10.97;;;;;;;;;;5049376;28;20435;-59
2022/07/25 02:46:59;;;;;;;14.53;11.43;;;;;;;;;;5049829;28;20155;-58
2022/07/25 02:49:25;;;;;;;15.00;10.93;;;;;;;;;;5049201;28;20056;-58
2022/07/25 02:51:51;;;;;;;12.87;10.10;;;;;;;;;;5049508;28;20828;-58
2022/07/25 02:54:18;;;;;;;14.47;11.97;;;;;;;;;;5049680;28;20045;-58
2022/07/25 02:56:44;;;;;;;13.77;12.33;;;;;;;;;;5049022;28;20110;-58
2022/07/25 02:59:10;;;;;;;15.43;12.23;;;;;;;;;;5049476;28;20136;-58
2022/07/25 03:01:36;;;;;;;13.73;11.63;;;;;;;;;;5049680;28;20129;-59
2022/07/25 03:04:03;;;;;;;15.10;12.17;;;;;;;;;;5049373;28;20037;-59
2022/07/25 03:06:29;;;;;;;17.13;12.83;;;;;;;;;;5049735;28;20457;-58
2022/07/25 03:08:54;;;;;;;14.03;11.00;;;;;;;;;;5049233;28;20045;-58
2022/07/25 03:11:21;;;;;;;14.37;11.30;;;;;;;;;;5049201;28;20036;-59
2022/07/25 03:13:47;;;;;;;14.27;11.77;;;;;;;;;;5048829;28;20052;-58
2022/07/25 03:16:13;;;;;;;15.40;12.40;;;;;;;;;;5048665;28;20068;-58
2022/07/25 03:18:39;;;;;;;13.90;11.17;;;;;;;;;;5048939;28;20136;-58
2022/07/25 03:21:05;;;;;;;17.77;12.77;;;;;;;;;;5049054;28;20141;-58
2022/07/25 03:23:31;;;;;;;18.83;11.50;;;;;;;;;;5048345;28;20057;-58
2022/07/25 03:25:57;;;;;;;17.17;12.40;;;;;;;;;;5049200;28;20111;-58
2022/07/25 03:28:24;;;;;;;16.40;12.80;;;;;;;;;;5048927;28;20045;-59
2022/07/25 03:30:50;;;;;;;16.30;11.77;;;;;;;;;;5048611;28;20049;-59
2022/07/25 03:33:16;;;;;;;14.60;12.87;;;;;;;;;;5048683;28;20132;-58
2022/07/25 03:35:42;;;;;;;18.90;13.03;;;;;;;;;;5048542;28;20410;-57
2022/07/25 03:38:08;;;;;;;15.33;12.60;;;;;;;;;;5048813;28;20044;-58
2022/07/25 03:40:35;;;;;;;18.00;12.50;;;;;;;;;;5048116;28;20045;-58
2022/07/25 03:43:01;;;;;;;15.37;11.80;;;;;;;;;;5048644;28;20057;-58
2022/07/25 03:45:27;;;;;;;16.27;12.47;;;;;;;;;;5048531;28;20128;-58
2022/07/25 03:47:53;;;;;;;13.53;12.13;;;;;;;;;;5048438;28;20059;-58
2022/07/25 03:50:19;;;;;;;17.07;12.73;;;;;;;;;;5047829;28;20083;-58
2022/07/25 03:52:45;;;;;;;13.37;11.97;;;;;;;;;;5048273;28;20037;-58
2022/07/25 03:55:11;;;;;;;14.20;12.70;;;;;;;;;;5048324;28;20041;-58
2022/07/25 03:57:38;;;;;;;14.40;12.30;;;;;;;;;;5048508;28;20045;-58
2022/07/25 04:00:05;;;;;;;14.87;12.60;;;;;;;;;;5048042;28;20052;-58
2022/07/25 04:02:31;;;;;;;15.17;12.60;;;;;;;;;;5048007;28;20091;-58
2022/07/25 04:04:57;;;;;;;14.83;12.33;;;;;;;;;;5048268;28;20041;-58
2022/07/25 04:07:23;;;;;;;23.07;13.03;;;;;;;;;;5047431;28;20404;-58
2022/07/25 04:09:49;;;;;;;13.97;12.37;;;;;;;;;;5048306;28;20041;-59
2022/07/25 04:12:15;;;;;;;14.17;12.30;;;;;;;;;;5048298;28;20041;-58
2022/07/25 04:14:41;;;;;;;15.43;12.70;;;;;;;;;;5047632;28;20303;-58
2022/07/25 04:17:07;;;;;;;14.93;12.03;;;;;;;;;;5047879;28;20052;-59
2022/07/25 04:19:33;;;;;;;13.97;12.57;;;;;;;;;;5047841;28;20124;-58
2022/07/25 04:21:59;;;;;;;15.07;11.37;;;;;;;;;;5048203;28;20565;-58
2022/07/25 04:24:25;;;;;;;16.20;11.63;;;;;;;;;;5048049;28;20140;-58
2022/07/25 04:26:51;;;;;;;13.27;11.53;;;;;;;;;;5047804;28;20057;-58
2022/07/25 04:29:17;;;;;;;14.80;12.53;;;;;;;;;;5048204;28;20559;-58
2022/07/25 04:31:43;;;;;;;14.17;12.57;;;;;;;;;;5048319;28;20049;-58
2022/07/25 04:34:09;;;;;;;12.50;11.20;;;;;;;;;;5047567;28;20056;-58
2022/07/25 04:36:35;;;;;;;15.60;12.63;;;;;;;;;;5066708;28;20052;-58
2022/07/25 04:39:01;;;;;;;14.67;12.20;;;;;;;;;;5068299;28;20045;-58
2022/07/25 04:41:27;;;;;;;13.40;11.73;;;;;;;;;;5068111;28;20407;-58
2022/07/25 04:43:53;;;;;;;16.47;13.67;;;;;;;;;;5067842;28;20213;-58
2022/07/25 04:46:20;;;;;;;13.93;12.43;;;;;;;;;;5068158;28;20049;-58
2022/07/25 04:48:46;;;;;;;16.73;13.17;;;;;;;;;;5068181;28;20043;-58
2022/07/25 04:51:12;;;;;;;17.20;12.80;;;;;;;;;;5067629;28;20058;-58
2022/07/25 04:53:38;;;;;;;13.83;12.43;;;;;;;;;;5067978;28;20048;-58
2022/07/25 04:56:04;;;;;;;16.03;14.33;;;;;;;;;;5068140;28;20047;-58
2022/07/25 04:58:31;;;;;;;17.83;13.23;;;;;;;;;;5067650;28;20051;-58
2022/07/25 05:00:57;;;;;;;18.47;13.23;;;;;;;;;;5068586;28;20522;-58
2022/07/25 05:03:23;;;;;;;15.07;13.47;;;;;;;;;;5071836;28;20262;-58
2022/07/25 05:05:50;;;;;;;14.37;11.70;;;;;;;;;;5062430;28;20036;-58
2022/07/25 05:08:16;;;;;;;15.23;13.20;;;;;;;;;;5059400;28;20047;-58
2022/07/25 05:10:42;;;;;;;14.93;12.83;;;;;;;;;;5059185;28;20041;-58
2022/07/25 05:13:08;;;;;;;15.83;13.27;;;;;;;;;;5060691;28;20044;-58
2022/07/25 05:15:34;;;;;;;16.00;12.80;;;;;;;;;;5053567;28;20045;-58
2022/07/25 05:18:00;;;;;;;19.07;14.07;;;;;;;;;;5051351;28;20084;-58
2022/07/25 05:20:26;;;;;;;16.20;12.63;;;;;;;;;;5051351;28;20040;-58
2022/07/25 05:22:52;;;;;;;16.93;12.47;;;;;;;;;;5051350;28;20095;-58
2022/07/25 05:25:19;;;;;;;17.10;13.13;;;;;;;;;;5051161;28;20457;-58
2022/07/25 05:27:45;;;;;;;13.47;11.77;;;;;;;;;;5051329;28;20131;-58
2022/07/25 05:30:11;;;;;;;17.07;12.93;;;;;;;;;;5050949;28;20049;-58
2022/07/25 05:32:38;;;;;;;14.63;11.53;;;;;;;;;;5050977;28;20131;-58
2022/07/25 05:35:06;;;;;;;15.20;11.73;;;;;;;;;;5051517;28;20063;-58
2022/07/25 05:37:32;;;;;;;15.03;10.80;;;;;;;;;;5070938;28;20048;-58
2022/07/25 05:39:58;;;;;;;12.07;10.30;;;;;;;;;;5071018;28;20040;-58
2022/07/25 05:42:24;;;;;;;13.47;10.40;;;;;;;;;;5070568;28;20060;-58
2022/07/25 05:44:50;;;;;;;13.07;11.77;;;;;;;;;;5070506;28;20072;-58
2022/07/25 05:47:17;;;;;;;13.10;11.37;;;;;;;;;;5070708;28;20140;-58
2022/07/25 05:49:43;;;;;;;15.70;11.70;;;;;;;;;;5068375;28;20044;-59
2022/07/25 05:52:09;;;;;;;13.93;11.17;;;;;;;;;;5070731;28;20051;-59
2022/07/25 05:54:36;;;;;;;13.23;11.57;;;;;;;;;;5070327;28;20064;-58
2022/07/25 05:57:02;;;;;;;13.10;10.20;;;;;;;;;;5069929;28;20051;-58
2022/07/25 05:59:28;;;;;;;12.90;11.47;;;;;;;;;;5060523;28;20048;-59
2022/07/25 06:01:54;;;;;;;14.57;11.63;;;;;;;;;;5058486;28;20056;-59
2022/07/25 06:04:20;;;;;;;14.17;11.70;;;;;;;;;;5060281;28;20123;-59
2022/07/25 06:06:50;;;;;;;13.13;10.50;;;;;;;;;;5065478;28;20040;-59
2022/07/25 06:09:22;;;;;;;13.13;11.70;;;;;;;;;;5070628;28;20056;-58
2022/07/25 06:11:49;;;;;;;14.75;11.70;;;;;;;;;;5069595;28;20498;-59
2022/07/25 06:14:15;;;;;;;14.03;11.10;;;;;;;;;;5069646;28;20048;-59
2022/07/25 06:16:41;;;;;;;13.20;11.80;;;;;;;;;;5069940;28;20587;-59
2022/07/25 06:19:07;;;;;;;13.23;10.80;;;;;;;;;;5069817;28;20078;-58
2022/07/25 06:21:33;;;;;;;16.53;11.47;;;;;;;;;;5070056;28;20048;-59
2022/07/25 06:24:00;;;;;;;12.63;10.67;;;;;;;;;;5069795;28;20044;-59
2022/07/25 06:26:26;;;;;;;11.83;10.50;;;;;;;;;;5069647;28;20056;-59
2022/07/25 06:28:52;;;;;;;15.10;10.33;;;;;;;;;;5069967;28;20132;-59
2022/07/25 06:31:18;;;;;;;14.90;11.27;;;;;;;;;;5069855;28;20044;-59
2022/07/25 06:33:44;;;;;;;14.33;11.27;;;;;;;;;;5069106;28;20048;-59
2022/07/25 06:36:10;;;;;;;12.47;11.13;;;;;;;;;;5069473;28;20053;-59
2022/07/25 06:38:36;;;;;;;11.63;10.43;;;;;;;;;;5069437;28;20041;-59
2022/07/25 06:41:02;;;;;;;16.17;11.23;;;;;;;;;;5069561;28;20037;-58
2022/07/25 06:43:28;;;;;;;13.80;11.33;;;;;;;;;;5069162;28;20131;-59
2022/07/25 06:45:54;;;;;;;11.50;10.30;;;;;;;;;;5069213;28;20106;-59
2022/07/25 06:48:23;;;;;;;14.07;10.87;;;;;;;;;;5069519;28;20037;-59
2022/07/25 06:50:49;;;;;;;12.70;10.03;;;;;;;;;;5069308;28;20091;-59
2022/07/25 06:53:15;;;;;;;14.87;10.30;;;;;;;;;;5069220;28;20048;-59
2022/07/25 06:55:41;;;;;;;12.93;9.77;;;;;;;;;;5068896;28;20053;-59
2022/07/25 06:58:07;;;;;;;13.23;10.03;;;;;;;;;;5069328;28;20064;-59
2022/07/25 07:00:33;;;;;;;12.93;9.67;;;;;;;;;;5068831;28;20549;-59
2022/07/25 07:03:01;;;;;;;9.63;8.40;;;;;;;;;;5069283;28;20060;-59
2022/07/25 07:05:28;;;;;;;13.33;9.17;;;;;;;;;;5068708;28;20060;-58
2022/07/25 07:07:54;;;;;;;9.35;8.38;;;;;;;;;;5068864;28;20051;-59
2022/07/25 07:10:21;;;;;;;16.88;8.85;;;;;;;;;;5069167;28;20040;-59
2022/07/25 07:12:47;;;;;;;11.27;8.55;;;;;;;;;;5069098;28;20055;-59
2022/07/25 07:15:13;;;;;;;9.30;7.90;;;;;;;;;;5068591;28;20490;-59
2022/07/25 07:17:39;;;;;;;10.32;9.23;;;;;;;;;;5068684;28;20491;-59
2022/07/25 07:20:06;;;;;;;11.98;9.38;;;;;;;;;;5068964;28;20044;-59
2022/07/25 07:22:32;;;;;;;10.32;8.82;;;;;;;;;;5068500;28;20047;-59
2022/07/25 07:24:58;;;;;;;13.45;8.52;;;;;;;;;;5067873;28;20048;-59
2022/07/25 07:27:24;;;;;;;15.02;9.77;;;;;;;;;;5068395;28;20086;-59
2022/07/25 07:29:50;;;;;;;12.85;10.20;;;;;;;;;;5068424;28;20068;-59
2022/07/25 07:32:16;;;;;;;14.70;10.07;;;;;;;;;;5068707;28;20045;-59
2022/07/25 07:34:42;;;;;;;13.02;9.40;;;;;;;;;;5068674;28;20506;-59
2022/07/25 07:37:08;;;;;;;13.10;9.23;;;;;;;;;;5068568;28;20083;-59
2022/07/25 07:39:34;;;;;;;14.70;9.50;;;;;;;;;;5068497;28;20421;-59
2022/07/25 07:42:00;;;;;;;10.65;8.98;;;;;;;;;;5068136;28;20044;-59
2022/07/25 07:44:26;;;;;;;12.68;10.27;;;;;;;;;;5068293;28;20056;-59
2022/07/25 07:46:52;;;;;;;12.15;9.30;;;;;;;;;;5068445;28;20044;-59
2022/07/25 07:49:18;;;;;;;12.73;9.70;;;;;;;;;;5067921;28;20103;-59
2022/07/25 07:51:44;;;;;;;14.07;9.40;;;;;;;;;;5068375;28;20593;-59
2022/07/25 07:56:55;;;;;;;12.77;9.20;;;;;;;;;;5068218;28;20498;-59
2022/07/25 07:59:21;;;;;;;16.08;8.82;;;;;;;;;;5068379;28;20073;-59
2022/07/25 08:01:47;;;;;;;10.80;8.35;;;;;;;;;;5067862;28;20129;-59
2022/07/25 08:04:14;;;;;;;12.48;7.63;;;;;;;;;;5066755;28;20494;-59
2022/07/25 08:06:41;;;;;;;9.73;7.32;;;;;;;;;;5066835;28;20131;-59
2022/07/25 08:09:07;;;;;;;9.57;7.70;;;;;;;;;;5068129;28;20138;-59
2022/07/25 08:11:33;;;;;;;10.38;7.53;;;;;;;;;;5068303;28;20059;-59
2022/07/25 08:14:00;;;;;;;9.63;6.75;;;;;;;;;;5066926;28;20048;-59
2022/07/25 08:16:26;;;;;;;11.20;7.80;;;;;;;;;;5066405;28;20049;-59
2022/07/25 08:18:52;;;;;;;12.05;8.23;;;;;;;;;;5068244;28;20045;-59
2022/07/25 08:21:18;;;;;;;9.45;7.38;;;;;;;;;;5067886;28;20110;-59
2022/07/25 08:23:46;;;;;;;10.57;7.65;;;;;;;;;;5067404;28;20045;-59
2022/07/25 08:26:13;;;;;;;10.50;7.70;;;;;;;;;;5067787;28;20545;-59
2022/07/25 08:28:39;;;;;;;7.80;6.75;;;;;;;;;;5067567;28;20044;-59
2022/07/25 08:31:05;;;;;;;9.02;6.80;;;;;;;;;;5068113;28;20131;-59
2022/07/25 08:33:31;;;;;;;8.00;7.05;;;;;;;;;;5067242;28;20058;-60
2022/07/25 08:35:58;;;;;;;7.95;7.13;;;;;;;;;;5069181;28;20041;-59
2022/07/25 08:38:25;;;;;;;6.55;5.88;;;;;;;;;;5071604;28;20110;-59
2022/07/25 08:40:51;;;;;;;6.97;4.95;;;;;;;;;;5071389;28;20044;-59
2022/07/25 08:43:18;;;;;;;6.93;5.10;;;;;;;;;;5071551;28;20069;-59
2022/07/25 08:45:45;;;;;;;5.78;5.05;;;;;;;;;;5071209;28;20052;-59
2022/07/25 08:48:11;;;;;;;10.75;5.47;;;;;;;;;;5071561;28;20045;-59
2022/07/25 08:50:38;;;;;;;7.47;5.63;;;;;;;;;;5071540;28;20044;-59
2022/07/25 08:53:04;;;;;;;7.70;4.65;;;;;;;;;;5071389;28;20037;-59
2022/07/25 08:55:30;;;;;;;7.30;4.05;;;;;;;;;;5070934;28;20113;-59
2022/07/25 08:57:56;;;;;;;7.25;4.05;;;;;;;;;;5071197;28;20087;-59
2022/07/25 09:00:23;;;;;;;6.07;4.22;;;;;;;;;;5071087;28;20076;-59
2022/07/25 09:02:55;;;;;;;6.72;3.95;;;;;;;;;;5071358;28;20040;-59
2022/07/25 09:05:23;;;;;;;6.97;3.20;;;;;;;;;;5071577;28;20048;-59
2022/07/25 09:07:49;;;;;;;5.43;2.80;;;;;;;;;;5071400;28;20118;-59
2022/07/25 09:10:20;;;;;;;4.05;2.13;;;;;;;;;;5071381;28;20045;-59
2022/07/25 09:13:03;;;;;;;4.50;2.25;;;;;;;;;;5070419;28;20090;-60
2022/07/25 09:15:32;;;;;;;4.65;2.28;;;;;;;;;;5070777;28;20052;-59
2022/07/25 09:17:59;;;;;;;4.82;1.70;;;;;;;;;;5070767;28;20075;-59
2022/07/25 09:20:40;;;;;;;3.10;1.52;;;;;;;;;;5071032;28;20102;-59
2022/07/25 09:23:06;;;;;;;2.42;1.38;;;;;;;;;;5070620;28;20566;-59
2022/07/25 09:25:32;;;;;;;2.25;1.40;;;;;;;;;;5070926;28;20545;-59
2022/07/25 09:28:17;;;;;;;4.93;1.60;;;;;;;;;;5070855;28;20506;-58
2022/07/25 09:30:56;;;;;;;3.00;1.70;;;;;;;;;;5070728;28;20055;-59
2022/07/25 09:33:23;;;;;;;4.50;1.63;;;;;;;;;;5070928;28;20131;-59
2022/07/25 09:35:49;;;;;;;4.30;1.95;;;;;;;;;;5070021;28;20052;-59
2022/07/25 09:38:16;;;;;;;4.18;1.90;;;;;;;;;;5070986;28;20048;-59
2022/07/25 09:40:52;;;;;;;4.63;1.65;;;;;;;;;;5070402;28;20048;-59
2022/07/25 09:43:18;;;;;;;4.20;1.67;;;;;;;;;;5070674;28;20061;-60
2022/07/25 09:45:49;;;;;;;6.13;1.92;;;;;;;;;;5070561;28;20114;-59
2022/07/25 09:48:17;;;;;;;3.80;2.35;;;;;;;;;;5069350;28;20052;-59
2022/07/25 09:50:43;;;;;;;3.55;1.50;;;;;;;;;;5070400;28;20041;-59
2022/07/25 09:53:10;;;;;;;4.50;1.80;;;;;;;;;;5070152;28;20409;-59
2022/07/25 09:55:36;;;;;;;4.63;2.58;;;;;;;;;;5070443;28;20109;-59
2022/07/25 09:58:02;;;;;;;5.95;2.38;;;;;;;;;;5070325;28;20131;-59
2022/07/25 10:00:28;;;;;;;3.45;2.10;;;;;;;;;;5069861;28;20049;-59
2022/07/25 10:02:54;;;;;;;5.35;2.03;;;;;;;;;;5070663;28;20044;-59
2022/07/25 10:05:30;;;;;;;4.00;1.92;;;;;;;;;;5070643;28;20064;-59
2022/07/25 10:07:56;;;;;;;4.90;2.17;;;;;;;;;;5070467;28;20049;-59
2022/07/25 10:10:30;;;;;;;4.60;1.95;;;;;;;;;;5070248;28;20365;-59
2022/07/25 10:13:09;;;;;;;3.58;1.80;;;;;;;;;;5070127;28;20041;-59
2022/07/25 10:15:52;;;;;;;5.10;1.58;;;;;;;;;;5070051;28;20521;-59
2022/07/25 10:18:20;;;;;;;3.65;1.40;;;;;;;;;;5070167;28;20140;-59
2022/07/25 10:20:47;;;;;;;3.78;1.17;;;;;;;;;;5069246;28;20048;-60
2022/07/25 10:23:20;;;;;;;2.65;1.20;;;;;;;;;;5070140;28;20082;-59
2022/07/25 10:25:46;;;;;;;3.90;1.05;;;;;;;;;;5069690;28;20053;-59
2022/07/25 10:28:16;;;;;;;4.32;1.10;;;;;;;;;;5069859;28;20494;-59
2022/07/25 10:30:42;;;;;;;2.78;1.30;;;;;;;;;;5069930;28;20045;-59
2022/07/25 10:33:15;;;;;;;3.85;1.00;;;;;;;;;;5069345;28;20048;-59
2022/07/25 10:35:41;;;;;;;4.32;1.27;;;;;;;;;;5069721;28;20044;-59
2022/07/25 10:38:07;;;;;;;4.90;1.20;;;;;;;;;;5069575;28;20106;-59
2022/07/25 10:40:47;;;;;;;5.30;1.40;;;;;;;;;;5069430;28;20101;-59
2022/07/25 10:43:17;;;;;;;4.30;1.70;;;;;;;;;;5069452;28;20472;-59
2022/07/25 10:45:48;;;;;;;2.53;1.30;;;;;;;;;;5069290;28;20053;-59
2022/07/25 10:48:24;;;;;;;2.75;1.17;;;;;;;;;;5069792;28;20041;-59
2022/07/25 10:50:52;;;;;;;4.00;1.40;;;;;;;;;;5068883;28;20098;-59
2022/07/25 10:53:48;;;;;;;3.35;1.17;;;;;;;;;;5069502;28;20051;-59
2022/07/25 10:56:20;;;;;;;3.40;1.25;;;;;;;;;;5064393;28;20052;-59
2022/07/25 10:58:50;;;;;;;7.28;1.50;;;;;;;;;;5069112;28;20052;-59
2022/07/25 11:01:30;;;;;;;4.75;1.55;;;;;;;;;;5068674;28;20063;-59
2022/07/25 11:03:57;;;;;;;4.47;1.75;;;;;;;;;;5069332;28;20052;-59
2022/07/25 11:06:29;;;;;;;6.90;1.90;;;;;;;;;;5069329;28;20044;-59
2022/07/25 11:08:56;;;;;;;7.10;1.80;;;;;;;;;;5069226;28;20044;-59
2022/07/25 11:11:32;;;;;;;6.70;2.08;;;;;;;;;;5069314;28;20051;-60
2022/07/25 11:13:59;;;;;;;5.32;2.03;;;;;;;;;;5068947;28;20045;-59
2022/07/25 11:16:26;;;;;;;7.38;2.05;;;;;;;;;;5068858;28;20057;-59
2022/07/25 11:18:53;;;;;;;6.90;2.38;;;;;;;;;;5068842;28;20040;-59
2022/07/25 11:21:19;;;;;;;10.57;3.05;;;;;;;;;;5069048;28;20051;-60
2022/07/25 11:23:50;;;;;;;6.90;2.40;;;;;;;;;;5068247;28;20048;-59
2022/07/25 11:26:16;;;;;;;6.65;2.08;;;;;;;;;;5068904;28;20048;-59
2022/07/25 11:28:44;;;;;;;8.25;2.53;;;;;;;;;;5068829;28;20098;-59
2022/07/25 11:31:11;;;;;;;6.45;2.33;;;;;;;;;;5068607;28;20119;-59
2022/07/25 11:33:37;;;;;;;5.90;2.17;;;;;;;;;;5068804;28;20359;-59
2022/07/25 11:36:04;;;;;;;7.80;2.00;;;;;;;;;;5068660;28;20055;-59
2022/07/25 11:38:30;;;;;;;6.07;2.20;;;;;;;;;;5068008;28;20053;-59
2022/07/25 11:40:56;;;;;;;8.38;2.17;;;;;;;;;;5068585;28;20052;-59
2022/07/25 11:43:23;;;;;;;4.60;2.15;;;;;;;;;;5068505;28;20052;-59
2022/07/25 11:45:56;;;;;;;7.13;1.88;;;;;;;;;;5067925;28;20515;-60
2022/07/25 11:48:30;;;;;;;9.00;2.10;;;;;;;;;;5068595;28;20426;-59
2022/07/25 11:50:56;;;;;;;4.55;1.65;;;;;;;;;;5068651;28;20051;-60
2022/07/25 11:53:22;;;;;;;9.43;2.20;;;;;;;;;;5068451;28;20041;-60
2022/07/25 11:55:48;;;;;;;7.18;1.83;;;;;;;;;;5067942;28;20044;-60
2022/07/25 11:58:14;;;;;;;4.75;1.63;;;;;;;;;;5068474;28;20051;-60
2022/07/25 12:00:41;;;;;;;5.40;1.98;;;;;;;;;;5068487;28;20048;-59
2022/07/25 12:03:09;;;;;;;5.70;2.00;;;;;;;;;;5068254;28;20135;-59
2022/07/25 12:05:35;;;;;;;5.05;1.95;;;;;;;;;;5068267;28;20053;-59
2022/07/25 12:08:14;;;;;;;9.95;2.90;;;;;;;;;;5068343;28;20507;-59
2022/07/25 12:10:42;;;;;;;6.60;1.90;;;;;;;;;;5067527;28;20045;-60
2022/07/25 12:13:09;;;;;;;4.15;1.75;;;;;;;;;;5067993;28;20520;-59
2022/07/25 12:15:36;;;;;;;5.38;2.10;;;;;;;;;;5068117;28;20044;-59
2022/07/25 12:18:02;;;;;;;6.03;1.88;;;;;;;;;;5068041;28;20076;-60
2022/07/25 12:20:30;;;;;;;7.10;2.22;;;;;;;;;;5067958;28;20059;-60
2022/07/25 12:23:03;;;;;;;6.85;2.30;;;;;;;;;;5068235;28;20047;-59
2022/07/25 12:25:30;;;;;;;8.00;1.83;;;;;;;;;;5067435;28;20057;-59
2022/07/25 12:27:57;;;;;;;8.38;1.73;;;;;;;;;;5068239;28;20040;-59
2022/07/25 12:30:23;;;;;;;5.75;1.85;;;;;;;;;;5067883;28;20080;-59
2022/07/25 12:32:50;;;;;;;7.32;2.08;;;;;;;;;;5067748;28;20490;-60
2022/07/25 12:35:16;;;;;;;6.05;1.45;;;;;;;;;;5067747;28;20518;-60
2022/07/25 12:37:43;;;;;;;7.30;2.05;;;;;;;;;;5067734;28;20048;-59
2022/07/25 12:40:09;;;;;;;8.10;1.80;;;;;;;;;;5067641;28;20059;-59
2022/07/25 12:42:35;;;;;;;9.55;1.95;;;;;;;;;;5067862;28;20051;-60
2022/07/25 12:45:01;;;;;;;6.50;1.70;;;;;;;;;;5068176;28;20105;-60
2022/07/25 12:47:27;;;;;;;9.07;2.35;;;;;;;;;;5066845;28;20040;-59
2022/07/25 12:49:53;;;;;;;8.23;1.85;;;;;;;;;;5067804;28;20424;-59
2022/07/25 12:52:19;;;;;;;3.78;1.60;;;;;;;;;;5068335;28;20047;-59
2022/07/25 12:54:46;;;;;;;5.95;1.70;;;;;;;;;;5066909;28;20045;-60
2022/07/25 12:57:12;;;;;;;5.22;1.40;;;;;;;;;;5066592;28;20336;-59
2022/07/25 12:59:39;;;;;;;5.45;2.70;;;;;;;;;;5068290;28;20465;-59
2022/07/25 13:02:05;;;;;;;7.30;2.05;;;;;;;;;;5067956;28;20494;-59
2022/07/25 13:04:31;;;;;;;4.75;1.90;;;;;;;;;;5067689;28;20049;-58
2022/07/25 13:06:58;;;;;;;8.30;1.65;;;;;;;;;;5067874;28;20129;-59
2022/07/25 13:09:24;;;;;;;5.20;1.65;;;;;;;;;;5067952;28;20178;-59
2022/07/25 13:11:51;;;;;;;6.25;1.70;;;;;;;;;;5067939;28;20166;-59
2022/07/25 13:14:17;;;;;;;6.85;1.95;;;;;;;;;;5067252;28;20037;-59
2022/07/25 13:16:44;;;;;;;5.05;1.63;;;;;;;;;;5067784;28;20048;-59
2022/07/25 13:19:10;;;;;;;5.82;1.80;;;;;;;;;;5067661;28;20041;-59
2022/07/25 13:21:36;;;;;;;7.03;2.08;;;;;;;;;;5067756;28;20048;-59
2022/07/25 13:24:02;;;;;;;11.93;2.75;;;;;;;;;;5070593;28;20461;-59
2022/07/25 13:26:28;;;;;;;8.27;2.40;;;;;;;;;;5070793;28;20114;-59
2022/07/25 13:28:54;;;;;;;9.85;2.60;;;;;;;;;;5071611;28;20051;-59
2022/07/25 13:31:21;;;;;;;7.15;2.60;;;;;;;;;;5071334;28;20040;-59
2022/07/25 13:33:47;;;;;;;8.50;2.15;;;;;;;;;;5071086;28;20048;-59
2022/07/25 13:36:14;;;;;;;9.15;2.55;;;;;;;;;;5071155;28;20067;-60
2022/07/25 13:38:42;;;;;;;11.80;2.80;;;;;;;;;;5071186;28;20048;-59
2022/07/25 13:41:08;;;;;;;10.75;2.40;;;;;;;;;;5070968;28;20056;-59
2022/07/25 13:43:34;;;;;;;6.93;2.30;;;;;;;;;;5070647;28;20498;-59
2022/07/25 13:46:01;;;;;;;9.35;2.70;;;;;;;;;;5071337;28;20434;-58
2022/07/25 13:48:30;;;;;;;10.90;3.07;;;;;;;;;;5071046;28;20036;-58
2022/07/25 13:50:57;;;;;;;8.77;2.43;;;;;;;;;;5071155;28;20047;-58
2022/07/25 13:53:23;;;;;;;6.38;2.33;;;;;;;;;;5070923;28;20044;-57
2022/07/25 13:55:49;;;;;;;9.70;2.63;;;;;;;;;;5070178;28;20040;-58
2022/07/25 13:58:15;;;;;;;7.00;2.58;;;;;;;;;;5070845;28;20055;-58
2022/07/25 14:00:43;;;;;;;8.20;2.20;;;;;;;;;;5070296;28;20048;-58
2022/07/25 14:03:09;;;;;;;8.25;2.47;;;;;;;;;;5070591;28;20043;-58
2022/07/25 14:05:37;;;;;;;11.93;3.92;;;;;;;;;;5070430;28;20071;-58
2022/07/25 14:08:03;;;;;;;11.63;2.60;;;;;;;;;;5059749;28;20040;-58
2022/07/25 14:10:30;;;;;;;8.18;1.95;;;;;;;;;;5060005;28;20059;-58
2022/07/25 14:12:56;;;;;;;4.85;2.00;;;;;;;;;;5059541;28;20045;-58
2022/07/25 14:15:22;;;;;;;8.27;2.60;;;;;;;;;;5057786;28;20163;-58
2022/07/25 14:17:48;;;;;;;13.75;2.72;;;;;;;;;;5060203;28;20037;-58
2022/07/25 14:20:14;;;;;;;9.55;2.35;;;;;;;;;;5058060;28;20086;-58
2022/07/25 14:22:41;;;;;;;10.20;2.53;;;;;;;;;;5059948;28;20072;-58
2022/07/25 14:25:07;;;;;;;11.13;2.78;;;;;;;;;;5058258;28;20048;-58
2022/07/25 14:27:33;;;;;;;11.95;2.65;;;;;;;;;;5060822;28;20057;-58
2022/07/25 14:29:59;;;;;;;10.32;2.47;;;;;;;;;;5059256;28;20032;-58
2022/07/25 14:32:26;;;;;;;10.50;3.22;;;;;;;;;;5060190;28;20218;-58
2022/07/25 14:34:52;;;;;;;12.13;2.88;;;;;;;;;;5058290;28;21047;-59